createdAt,value
2023-05-14T00:01:44.605Z,102240.69
2023-05-14T00:04:12.583Z,102236.41
2023-05-14T00:06:41.963Z,102238.31
2023-05-14T00:09:09.864Z,102240.97
2023-05-14T00:11:37.848Z,102235.69
2023-05-14T00:14:06.023Z,102240.06
2023-05-14T00:16:33.954Z,102240.75
2023-05-14T00:19:01.991Z,102228.16
2023-05-14T00:21:29.826Z,102247.06
2023-05-14T00:23:59.089Z,102170.50
2023-05-14T00:26:27.093Z,102246.44
2023-05-14T00:28:54.941Z,102245.19
2023-05-14T00:31:22.758Z,102243.31
2023-05-14T00:33:50.771Z,102230.59
2023-05-14T00:36:18.600Z,102244.84
2023-05-14T00:38:46.444Z,102243.72
2023-05-14T00:41:15.875Z,102241.78
2023-05-14T00:43:43.734Z,102252.00
2023-05-14T00:46:12.515Z,102245.56
2023-05-14T00:48:40.495Z,102229.34
2023-05-14T00:51:09.603Z,102246.31
2023-05-14T00:53:37.979Z,102240.06
2023-05-14T00:56:07.058Z,102249.47
2023-05-14T00:58:36.282Z,102246.09
2023-05-14T01:01:04.325Z,102244.44
2023-05-14T01:03:35.596Z,102242.34
2023-05-14T01:06:11.128Z,102231.75
2023-05-14T01:08:50.963Z,102189.78
2023-05-14T01:11:21.544Z,102228.56
2023-05-14T01:14:00.459Z,102208.31
2023-05-14T01:16:30.514Z,102234.16
2023-05-14T01:19:01.115Z,102243.69
2023-05-14T01:21:40.490Z,102240.25
2023-05-14T01:24:09.285Z,102233.78
2023-05-14T01:26:37.646Z,102190.38
2023-05-14T01:29:14.969Z,102247.88
2023-05-14T01:31:45.379Z,102247.50
2023-05-14T01:34:15.383Z,102245.19
2023-05-14T01:36:45.436Z,102246.06
2023-05-14T01:39:15.254Z,102248.63
2023-05-14T01:41:43.785Z,102249.22
2023-05-14T01:44:12.249Z,102243.81
2023-05-14T01:46:40.269Z,102245.63
2023-05-14T01:49:08.209Z,102243.00
2023-05-14T01:51:36.168Z,102245.63
2023-05-14T01:54:05.651Z,102244.72
2023-05-14T01:56:33.849Z,102249.28
2023-05-14T01:59:03.162Z,102239.53
2023-05-14T02:01:31.753Z,102243.66
2023-05-14T02:04:00.110Z,102247.78
2023-05-14T02:06:28.360Z,102242.38
2023-05-14T02:08:56.186Z,102251.06
2023-05-14T02:11:26.356Z,102243.97
2023-05-14T02:13:54.188Z,102226.22
2023-05-14T02:16:22.070Z,102242.19
2023-05-14T02:18:50.065Z,102236.69
2023-05-14T02:21:17.944Z,102246.34
2023-05-14T02:23:45.791Z,102241.84
2023-05-14T02:26:13.698Z,102232.63
2023-05-14T02:28:42.922Z,102240.41
2023-05-14T02:31:10.790Z,102255.31
2023-05-14T02:33:38.941Z,102251.59
2023-05-14T02:36:07.180Z,102254.13
2023-05-14T02:38:35.016Z,102252.25
2023-05-14T02:41:02.975Z,102238.91
2023-05-14T02:43:30.816Z,102243.34
2023-05-14T02:46:00.034Z,102233.34
2023-05-14T02:48:28.035Z,102251.28
2023-05-14T02:50:55.877Z,102243.56
2023-05-14T02:53:23.728Z,102240.50
2023-05-14T02:55:51.968Z,102255.63
2023-05-14T02:58:19.813Z,102238.75
2023-05-14T03:00:54.208Z,102240.22
2023-05-14T03:03:23.915Z,102245.72
2023-05-14T03:05:52.154Z,102250.88
2023-05-14T03:08:20.092Z,102252.50
2023-05-14T03:10:47.909Z,102255.25
2023-05-14T03:13:20.844Z,102248.28
2023-05-14T03:15:48.995Z,102246.72
2023-05-14T03:18:16.867Z,102248.00
2023-05-14T03:20:46.102Z,102245.63
2023-05-14T03:23:14.956Z,102240.28
2023-05-14T03:25:42.820Z,102249.06
2023-05-14T03:28:13.070Z,102249.34
2023-05-14T03:30:41.027Z,102247.94
2023-05-14T03:33:08.925Z,102238.34
2023-05-14T03:35:36.765Z,102248.84
2023-05-14T03:38:06.155Z,102247.09
2023-05-14T03:40:34.015Z,102243.50
2023-05-14T03:43:01.845Z,102247.03
2023-05-14T03:45:30.504Z,102245.47
2023-05-14T03:47:58.439Z,102240.53
2023-05-14T03:50:26.463Z,102241.13
2023-05-14T03:52:55.085Z,102230.13
2023-05-14T03:55:24.502Z,102212.94
2023-05-14T03:57:52.462Z,102214.22
2023-05-14T04:00:21.386Z,102234.09
2023-05-14T04:02:49.700Z,102236.88
2023-05-14T04:05:17.784Z,102220.16
2023-05-14T04:07:46.241Z,102231.47
2023-05-14T04:10:14.686Z,102218.63
2023-05-14T04:12:43.895Z,102206.19
2023-05-14T04:15:12.556Z,102213.00
2023-05-14T04:17:40.465Z,102215.97
2023-05-14T04:20:09.751Z,102183.00
2023-05-14T04:22:37.680Z,102213.72
2023-05-14T04:25:06.219Z,102211.38
2023-05-14T04:27:34.655Z,102213.53
2023-05-14T04:30:04.541Z,102162.44
2023-05-14T04:32:32.384Z,102212.00
2023-05-14T04:35:00.271Z,102213.06
2023-05-14T04:37:28.184Z,102201.56
2023-05-14T04:39:56.287Z,102206.34
2023-05-14T04:42:24.185Z,102203.78
2023-05-14T04:44:52.326Z,102213.81
2023-05-14T04:47:22.305Z,102204.56
2023-05-14T04:49:50.214Z,102201.47
2023-05-14T04:52:18.130Z,102189.22
2023-05-14T04:54:46.198Z,102193.41
2023-05-14T04:57:14.341Z,102193.69
2023-05-14T04:59:42.241Z,102174.88
2023-05-14T05:02:10.315Z,102185.09
2023-05-14T05:04:39.833Z,102195.44
2023-05-14T05:07:07.727Z,102196.59
2023-05-14T05:09:35.753Z,102169.13
2023-05-14T05:12:03.587Z,102129.09
2023-05-14T05:14:31.419Z,102191.19
2023-05-14T05:16:59.637Z,102182.41
2023-05-14T05:19:39.555Z,102197.09
2023-05-14T05:22:12.987Z,102200.91
2023-05-14T05:24:40.862Z,102205.59
2023-05-14T05:27:08.892Z,102194.41
2023-05-14T05:29:36.879Z,102197.31
2023-05-14T05:32:05.168Z,102176.19
2023-05-14T05:34:33.129Z,102195.44
2023-05-14T05:37:01.018Z,102194.00
2023-05-14T05:39:35.299Z,102137.81
2023-05-14T05:42:03.985Z,102185.66
2023-05-14T05:44:32.145Z,102190.50
2023-05-14T05:47:00.199Z,102189.88
2023-05-14T05:49:28.279Z,102199.88
2023-05-14T05:51:56.131Z,102185.91
2023-05-14T05:54:29.208Z,102186.25
2023-05-14T05:56:58.511Z,102195.50
2023-05-14T05:59:26.353Z,102194.94
2023-05-14T06:01:56.591Z,102189.13
2023-05-14T06:04:24.612Z,102186.03
2023-05-14T06:06:52.634Z,102188.19
2023-05-14T06:09:20.901Z,102175.09
2023-05-14T06:11:51.650Z,102184.56
2023-05-14T06:14:21.086Z,102180.53
2023-05-14T06:16:49.020Z,102187.84
2023-05-14T06:19:17.169Z,102174.00
2023-05-14T06:21:45.295Z,102179.63
2023-05-14T06:24:13.376Z,102184.44
2023-05-14T06:26:41.402Z,102177.59
2023-05-14T06:29:09.537Z,102184.94
2023-05-14T06:31:38.815Z,102183.34
2023-05-14T06:34:08.921Z,102179.94
2023-05-14T06:36:37.049Z,102189.09
2023-05-14T06:39:05.234Z,102172.41
2023-05-14T06:41:33.208Z,102172.75
2023-05-14T06:44:01.018Z,102184.41
2023-05-14T06:46:28.846Z,102182.81
2023-05-14T06:48:59.547Z,102168.81
2023-05-14T06:51:27.782Z,102178.88
2023-05-14T06:53:56.134Z,102165.75
2023-05-14T06:56:24.231Z,102178.53
2023-05-14T06:58:52.062Z,102173.56
2023-05-14T07:01:19.955Z,102166.72
2023-05-14T07:03:47.953Z,102176.91
2023-05-14T07:06:18.585Z,102174.66
2023-05-14T07:08:47.698Z,102159.88
2023-05-14T07:11:17.316Z,102174.66
2023-05-14T07:13:48.120Z,102171.66
2023-05-14T07:16:16.099Z,102168.75
2023-05-14T07:18:53.175Z,102173.53
2023-05-14T07:21:22.484Z,102163.59
2023-05-14T07:23:51.386Z,102168.78
2023-05-14T07:26:21.608Z,102160.84
2023-05-14T07:28:49.748Z,102157.41
2023-05-14T07:31:17.917Z,102152.63
2023-05-14T07:33:46.104Z,102151.28
2023-05-14T07:36:14.268Z,102144.53
2023-05-14T07:38:43.547Z,102147.38
2023-05-14T07:41:12.273Z,102137.56
2023-05-14T07:43:40.578Z,102141.84
2023-05-14T07:46:08.488Z,102137.19
2023-05-14T07:48:36.414Z,102074.72
2023-05-14T07:51:04.410Z,102111.13
2023-05-14T07:53:32.287Z,102125.28
2023-05-14T07:56:01.523Z,102128.66
2023-05-14T07:58:30.263Z,102121.88
2023-05-14T08:00:58.093Z,102123.44
2023-05-14T08:03:25.978Z,102119.84
2023-05-14T08:05:54.000Z,102111.59
2023-05-14T08:08:21.829Z,102111.28
2023-05-14T08:10:49.746Z,102120.25
2023-05-14T08:13:18.985Z,102111.03
2023-05-14T08:15:48.155Z,102106.03
2023-05-14T08:18:16.214Z,102108.88
2023-05-14T08:20:44.037Z,102098.41
2023-05-14T08:23:11.910Z,102088.91
2023-05-14T08:25:39.864Z,102097.97
2023-05-14T08:28:08.896Z,102087.16
2023-05-14T08:30:38.295Z,102068.78
2023-05-14T08:33:06.352Z,102089.88
2023-05-14T08:35:34.369Z,102083.75
2023-05-14T08:38:02.330Z,102078.88
2023-05-14T08:40:30.487Z,102093.19
2023-05-14T08:42:58.585Z,102087.63
2023-05-14T08:45:34.193Z,102080.19
2023-05-14T08:48:09.394Z,102082.88
2023-05-14T08:50:37.662Z,102075.00
2023-05-14T08:53:05.611Z,102066.38
2023-05-14T08:55:34.213Z,102071.44
2023-05-14T08:58:02.499Z,102083.59
2023-05-14T09:00:30.900Z,102080.09
2023-05-14T09:03:00.220Z,102074.91
2023-05-14T09:05:29.592Z,102072.72
2023-05-14T09:07:57.681Z,102071.47
2023-05-14T09:10:26.309Z,102057.69
2023-05-14T09:12:54.578Z,102077.66
2023-05-14T09:15:22.382Z,102068.94
2023-05-14T09:17:50.449Z,102061.91
2023-05-14T09:20:18.504Z,102063.66
2023-05-14T09:22:47.783Z,102060.38
2023-05-14T09:25:15.614Z,102063.47
2023-05-14T09:27:43.511Z,101994.22
2023-05-14T09:30:12.993Z,102058.03
2023-05-14T09:32:44.060Z,102035.16
2023-05-14T09:35:15.021Z,102055.81
2023-05-14T09:37:46.383Z,102054.75
2023-05-14T09:40:18.978Z,102048.13
2023-05-14T09:42:48.229Z,102055.69
2023-05-14T09:45:17.114Z,102019.88
2023-05-14T09:47:46.098Z,102055.00
2023-05-14T09:50:14.395Z,101991.13
2023-05-14T09:52:43.703Z,102047.47
2023-05-14T09:55:15.711Z,102052.31
2023-05-14T09:57:45.302Z,102049.97
2023-05-14T10:00:15.813Z,102052.38
2023-05-14T10:02:46.983Z,102041.28
2023-05-14T10:05:16.793Z,102047.03
2023-05-14T10:07:50.668Z,102045.84
2023-05-14T10:10:21.673Z,102028.97
2023-05-14T10:12:56.186Z,102040.00
2023-05-14T10:15:31.494Z,102038.50
2023-05-14T10:18:04.678Z,102035.22
2023-05-14T10:20:33.324Z,102031.97
2023-05-14T10:23:02.131Z,102022.88
2023-05-14T10:25:32.091Z,102027.34
2023-05-14T10:28:02.112Z,102038.38
2023-05-14T10:30:31.387Z,102028.63
2023-05-14T10:33:10.379Z,101895.97
2023-05-14T10:36:01.730Z,102017.41
2023-05-14T10:38:30.452Z,101994.66
2023-05-14T10:41:01.077Z,102016.00
2023-05-14T10:43:31.851Z,102007.81
2023-05-14T10:46:01.695Z,102025.84
2023-05-14T10:48:30.067Z,102002.44
2023-05-14T10:50:58.833Z,102000.28
2023-05-14T10:53:37.995Z,101995.22
2023-05-14T10:56:07.546Z,101998.91
2023-05-14T10:58:39.202Z,101993.78
2023-05-14T11:01:08.528Z,101999.44
2023-05-14T11:03:42.150Z,101982.97
2023-05-14T11:06:11.302Z,101877.03
2023-05-14T11:08:39.832Z,101976.22
2023-05-14T11:11:08.172Z,101977.88
2023-05-14T11:13:36.550Z,101978.00
2023-05-14T11:18:38.897Z,101983.00
2023-05-14T11:21:07.075Z,101986.38
2023-05-14T11:23:34.974Z,101978.50
2023-05-14T11:26:03.265Z,101982.91
2023-05-14T11:28:31.362Z,101963.03
2023-05-14T11:30:59.219Z,101970.06
2023-05-14T11:33:29.223Z,101966.34
2023-05-14T11:35:57.200Z,101967.56
2023-05-14T11:38:25.502Z,101930.56
2023-05-14T11:40:54.388Z,101965.59
2023-05-14T11:43:23.747Z,101956.81
2023-05-14T11:45:52.690Z,101957.69
2023-05-14T11:48:20.952Z,101965.84
2023-05-14T11:50:51.524Z,101956.03
2023-05-14T11:53:20.382Z,101960.03
2023-05-14T11:55:49.913Z,101954.69
2023-05-14T11:58:19.519Z,101954.47
2023-05-14T12:00:47.655Z,101905.19
2023-05-14T12:03:15.828Z,101945.13
2023-05-14T12:05:58.145Z,101936.34
2023-05-14T12:08:28.545Z,101935.53
2023-05-14T12:10:56.994Z,101940.31
2023-05-14T12:13:27.712Z,101944.78
2023-05-14T12:15:57.093Z,101934.25
2023-05-14T12:18:26.450Z,101933.59
2023-05-14T12:20:54.454Z,101931.78
2023-05-14T12:23:28.012Z,101920.06
2023-05-14T12:25:56.021Z,101910.84
2023-05-14T12:28:24.745Z,101920.50
2023-05-14T12:30:58.287Z,101910.81
2023-05-14T12:33:27.360Z,101922.13
2023-05-14T12:35:58.913Z,101913.81
2023-05-14T12:38:30.065Z,101894.53
2023-05-14T12:40:57.869Z,101909.47
2023-05-14T12:43:30.003Z,101919.66
2023-05-14T12:45:57.978Z,101921.53
2023-05-14T12:48:26.177Z,101913.53
2023-05-14T12:50:54.045Z,101916.34
2023-05-14T12:53:22.063Z,101913.63
2023-05-14T12:55:51.479Z,101912.78
2023-05-14T12:58:19.351Z,101902.22
2023-05-14T13:00:47.379Z,101917.25
2023-05-14T13:03:15.333Z,101919.03
2023-05-14T13:05:43.256Z,101863.78
2023-05-14T13:08:11.367Z,101848.78
2023-05-14T13:10:39.194Z,101911.97
2023-05-14T13:13:08.475Z,101908.72
2023-05-14T13:15:37.441Z,101902.22
2023-05-14T13:18:05.855Z,101891.88
2023-05-14T13:20:34.537Z,101898.00
2023-05-14T13:23:03.089Z,101898.78
2023-05-14T13:25:30.981Z,101898.91
2023-05-14T13:27:58.840Z,101908.28
2023-05-14T13:30:28.734Z,101905.91
2023-05-14T13:32:56.601Z,101892.72
2023-05-14T13:35:24.774Z,101897.91
2023-05-14T13:37:53.320Z,101897.94
2023-05-14T13:40:21.328Z,101894.34
2023-05-14T13:42:50.660Z,101896.84
2023-05-14T13:45:18.694Z,101881.44
2023-05-14T13:47:49.411Z,101879.28
2023-05-14T13:50:17.537Z,101881.00
2023-05-14T13:52:45.549Z,101883.88
2023-05-14T13:55:13.530Z,101876.94
2023-05-14T13:57:43.085Z,101872.31
2023-05-14T14:00:11.809Z,101868.03
2023-05-14T14:02:39.822Z,101870.94
2023-05-14T14:05:10.446Z,101872.81
2023-05-14T14:07:38.954Z,101873.25
2023-05-14T14:10:08.156Z,101864.66
2023-05-14T14:12:36.816Z,101872.34
2023-05-14T14:15:05.300Z,101869.44
2023-05-14T14:17:34.256Z,101860.38
2023-05-14T14:20:02.291Z,101818.50
2023-05-14T14:22:31.881Z,101856.53
2023-05-14T14:24:59.774Z,101860.41
2023-05-14T14:27:27.802Z,101844.47
2023-05-14T14:29:56.885Z,101845.81
2023-05-14T14:32:25.014Z,101836.41
2023-05-14T14:34:53.160Z,101846.94
2023-05-14T14:37:23.017Z,101845.56
2023-05-14T14:39:52.441Z,101836.94
2023-05-14T14:42:20.476Z,101842.72
2023-05-14T14:44:48.401Z,101838.91
2023-05-14T14:47:18.610Z,101840.78
2023-05-14T14:49:46.651Z,101835.34
2023-05-14T14:52:15.643Z,101737.91
2023-05-14T14:54:43.676Z,101813.75
2023-05-14T14:57:13.311Z,101832.78
2023-05-14T14:59:41.433Z,101837.03
2023-05-14T15:02:11.002Z,101824.03
2023-05-14T15:04:39.178Z,101824.41
2023-05-14T15:07:07.400Z,101819.41
2023-05-14T15:09:35.362Z,101824.38
2023-05-14T15:12:03.530Z,101830.28
2023-05-14T15:14:33.552Z,101810.53
2023-05-14T15:17:01.924Z,101823.16
2023-05-14T15:19:31.138Z,101810.72
2023-05-14T15:21:59.254Z,101821.13
2023-05-14T15:24:27.410Z,101809.66
2023-05-14T15:26:55.833Z,101803.00
2023-05-14T15:29:23.852Z,101803.56
2023-05-14T15:31:53.390Z,101772.56
2023-05-14T15:34:23.718Z,101804.06
2023-05-14T15:36:52.204Z,101807.22
2023-05-14T15:39:21.609Z,101795.13
2023-05-14T15:41:49.707Z,101797.56
2023-05-14T15:44:17.850Z,101799.91
2023-05-14T15:46:45.964Z,101798.38
2023-05-14T15:49:15.544Z,101792.50
2023-05-14T15:51:43.533Z,101796.25
2023-05-14T15:54:14.603Z,101790.75
2023-05-14T15:56:42.593Z,101798.94
2023-05-14T15:59:10.488Z,101802.22
2023-05-14T16:01:38.431Z,101795.22
2023-05-14T16:04:06.488Z,101786.19
2023-05-14T16:06:36.357Z,101786.19
2023-05-14T16:09:05.225Z,101785.63
2023-05-14T16:11:33.139Z,101780.75
2023-05-14T16:14:01.067Z,101771.50
2023-05-14T16:16:29.053Z,101776.66
2023-05-14T16:18:57.217Z,101775.94
2023-05-14T16:21:25.269Z,101750.38
2023-05-14T16:23:54.514Z,101765.13
2023-05-14T16:26:22.869Z,101719.94
2023-05-14T16:28:50.745Z,101770.78
2023-05-14T16:31:18.886Z,101754.72
2023-05-14T16:33:46.859Z,101736.38
2023-05-14T16:36:14.709Z,101757.41
2023-05-14T16:39:05.405Z,101753.56
2023-05-14T16:41:32.181Z,101762.84
2023-05-14T16:44:00.029Z,101752.78
2023-05-14T16:46:29.389Z,101742.50
2023-05-14T16:48:57.723Z,101753.16
2023-05-14T16:51:25.696Z,101749.50
2023-05-14T16:53:55.502Z,101758.88
2023-05-14T16:56:23.917Z,101749.44
2023-05-14T16:58:53.161Z,101711.34
2023-05-14T17:01:21.068Z,101757.75
2023-05-14T17:03:49.084Z,101756.41
2023-05-14T17:06:17.090Z,101662.63
2023-05-14T17:08:44.966Z,101757.69
2023-05-14T17:11:12.946Z,101757.56
2023-05-14T17:13:40.853Z,101758.56
2023-05-14T17:16:10.192Z,101761.00
2023-05-14T17:18:38.355Z,101744.66
2023-05-14T17:21:07.563Z,101632.56
2023-05-14T17:23:35.656Z,101754.31
2023-05-14T17:26:03.901Z,101730.56
2023-05-14T17:28:32.051Z,101768.03
2023-05-14T17:30:59.927Z,101763.81
2023-05-14T17:33:29.624Z,101769.38
2023-05-14T17:35:57.621Z,101774.81
2023-05-14T17:38:25.862Z,101781.19
2023-05-14T17:40:54.360Z,101768.81
2023-05-14T17:43:22.292Z,101748.47
2023-05-14T17:45:54.457Z,101773.41
2023-05-14T17:48:23.065Z,101772.56
2023-05-14T17:50:52.457Z,101728.19
2023-05-14T17:53:20.471Z,101754.88
2023-05-14T17:55:48.499Z,101774.44
2023-05-14T17:58:16.728Z,101776.22
2023-05-14T18:00:44.850Z,101777.13
2023-05-14T18:03:14.301Z,101785.13
2023-05-14T18:05:44.776Z,101782.44
2023-05-14T18:08:14.621Z,101770.88
2023-05-14T18:10:42.496Z,101781.53
2023-05-14T18:13:10.423Z,101785.09
2023-05-14T18:15:38.792Z,101786.88
2023-05-14T18:18:07.287Z,101771.78
2023-05-14T18:20:35.650Z,101787.78
2023-05-14T18:23:03.884Z,101788.66
2023-05-14T18:25:33.297Z,101759.25
2023-05-14T18:28:01.258Z,101797.41
2023-05-14T18:30:29.157Z,101795.59
2023-05-14T18:32:57.012Z,101800.88
2023-05-14T18:35:25.053Z,101792.00
2023-05-14T18:37:53.529Z,101790.19
2023-05-14T18:40:21.630Z,101801.66
2023-05-14T18:42:50.910Z,101787.41
2023-05-14T18:45:22.370Z,101798.00
2023-05-14T18:47:50.900Z,101784.66
2023-05-14T18:50:18.957Z,101797.06
2023-05-14T18:52:46.875Z,101798.81
2023-05-14T18:55:14.837Z,101782.72
2023-05-14T18:57:42.849Z,101793.38
2023-05-14T19:00:13.824Z,101793.34
2023-05-14T19:02:41.768Z,101800.38
2023-05-14T19:05:09.974Z,101797.69
2023-05-14T19:07:38.220Z,101797.66
2023-05-14T19:10:07.475Z,101735.28
2023-05-14T19:12:37.578Z,101798.41
2023-05-14T19:15:06.552Z,101793.00
2023-05-14T19:17:36.790Z,101785.84
2023-05-14T19:20:05.915Z,101795.53
2023-05-14T19:22:33.855Z,101796.31
2023-05-14T19:25:02.040Z,101792.72
2023-05-14T19:27:31.253Z,101792.59
2023-05-14T19:29:59.140Z,101786.28
2023-05-14T19:32:27.007Z,101793.28
2023-05-14T19:34:58.943Z,101787.88
2023-05-14T19:37:27.046Z,101783.38
2023-05-14T19:39:54.888Z,101790.41
2023-05-14T19:42:22.692Z,101782.34
2023-05-14T19:44:51.311Z,101776.09
2023-05-14T19:47:20.281Z,101787.59
2023-05-14T19:49:48.135Z,101731.41
2023-05-14T19:52:17.648Z,101789.25
2023-05-14T19:54:45.506Z,101788.31
2023-05-14T19:57:13.404Z,101790.03
2023-05-14T19:59:41.488Z,101788.19
2023-05-14T20:02:15.653Z,101789.88
2023-05-14T20:04:45.572Z,101786.16
2023-05-14T20:07:14.007Z,101789.63
2023-05-14T20:09:43.530Z,101778.72
2023-05-14T20:12:12.944Z,101794.69
2023-05-14T20:14:41.671Z,101803.38
2023-05-14T20:17:10.337Z,101788.22
2023-05-14T20:19:38.412Z,101787.28
2023-05-14T20:22:06.506Z,101800.53
2023-05-14T20:24:34.324Z,101795.16
2023-05-14T20:27:03.728Z,101793.28
2023-05-14T20:29:31.639Z,101793.19
2023-05-14T20:31:59.481Z,101776.25
2023-05-14T20:34:27.389Z,101788.63
2023-05-14T20:36:55.220Z,101759.13
2023-05-14T20:39:23.320Z,101787.56
2023-05-14T20:41:51.304Z,101797.22
2023-05-14T20:44:20.824Z,101790.03
2023-05-14T20:46:49.053Z,101779.34
2023-05-14T20:49:17.098Z,101784.50
2023-05-14T20:51:45.024Z,101783.47
2023-05-14T20:54:12.891Z,101777.16
2023-05-14T20:56:40.808Z,101775.22
2023-05-14T20:59:08.696Z,101793.78
2023-05-14T21:01:37.979Z,101784.88
2023-05-14T21:04:06.240Z,101786.59
2023-05-14T21:06:34.206Z,101788.25
2023-05-14T21:09:02.050Z,101785.50
2023-05-14T21:11:29.955Z,101790.69
2023-05-14T21:13:58.756Z,101783.44
2023-05-14T21:16:26.678Z,101769.00
2023-05-14T21:18:56.245Z,101782.41
2023-05-14T21:21:24.428Z,101787.56
2023-05-14T21:23:52.268Z,101786.53
2023-05-14T21:26:23.571Z,101758.75
2023-05-14T21:28:51.402Z,101758.69
2023-05-14T21:31:20.707Z,101785.34
2023-05-14T21:33:48.725Z,101783.47
2023-05-14T21:36:18.307Z,101791.28
2023-05-14T21:38:46.113Z,101783.28
2023-05-14T21:41:14.479Z,101781.47
2023-05-14T21:43:43.814Z,101762.66
2023-05-14T21:46:11.793Z,101769.66
2023-05-14T21:48:40.092Z,101776.72
2023-05-14T21:51:08.002Z,101764.09
2023-05-14T21:53:37.183Z,101774.78
2023-05-14T21:56:06.119Z,101760.47
2023-05-14T21:58:33.946Z,101772.94
2023-05-14T22:01:01.777Z,101763.03
2023-05-14T22:03:30.048Z,101771.88
2023-05-14T22:05:58.617Z,101765.44
2023-05-14T22:08:27.272Z,101606.63
2023-05-14T22:10:56.700Z,101780.47
2023-05-14T22:13:24.739Z,101760.06
2023-05-14T22:16:01.411Z,101774.06
2023-05-14T22:18:37.204Z,101750.03
2023-05-14T22:21:05.670Z,101750.97
2023-05-14T22:23:33.512Z,101762.38
2023-05-14T22:26:02.984Z,101761.56
2023-05-14T22:28:30.920Z,101768.50
2023-05-14T22:30:59.756Z,101756.09
2023-05-14T22:33:27.920Z,101763.94
2023-05-14T22:35:55.780Z,101740.72
2023-05-14T22:38:23.599Z,101702.25
2023-05-14T22:40:51.965Z,101755.81
2023-05-14T22:43:21.213Z,101755.72
2023-05-14T22:45:49.040Z,101708.34
2023-05-14T22:48:17.055Z,101751.16
2023-05-14T22:50:44.954Z,101750.22
2023-05-14T22:53:13.510Z,101745.81
2023-05-14T22:55:41.498Z,101751.91
2023-05-14T22:58:09.346Z,101750.06
2023-05-14T23:00:38.669Z,101744.75
2023-05-14T23:03:07.460Z,101741.13
2023-05-14T23:05:36.252Z,101731.41
2023-05-14T23:08:04.150Z,101734.06
2023-05-14T23:10:33.354Z,101730.59
2023-05-14T23:13:01.210Z,101709.22
2023-05-14T23:15:29.101Z,101722.59
2023-05-14T23:17:59.825Z,101725.19
2023-05-14T23:20:27.735Z,101726.94
2023-05-14T23:22:55.553Z,101726.84
2023-05-14T23:25:23.587Z,101724.97
2023-05-14T23:27:51.555Z,101730.22
2023-05-14T23:30:19.633Z,101724.09
2023-05-14T23:32:47.625Z,101724.13
2023-05-14T23:35:17.124Z,101718.84
2023-05-14T23:37:47.424Z,101719.72
2023-05-14T23:40:15.811Z,101683.91
2023-05-14T23:42:44.643Z,101710.66
2023-05-14T23:45:14.112Z,101711.56
2023-05-14T23:47:42.409Z,101706.28
2023-05-14T23:50:10.677Z,101688.53
2023-05-14T23:52:39.997Z,101703.56
2023-05-14T23:55:08.551Z,101687.66
2023-05-14T23:57:36.923Z,101688.53
